Time;durP1;ratioP1;P1;durP2;ratioP2;P2;SDS_P1;SDS_P2;PMS_P1;PMS_P2;Temp;Humidity;BMP_temperature;BMP_pressure;BME280_temperature;BME280_humidity;BME280_pressure;Samples;Min_cycle;Max_cycle;Signal;HPM_P1;HPM_P2
2023/12/21 00:00:20;;;;;;;16.50;3.10;;;9.20;99.90;;;;;;5111609;28;20054;-80
2023/12/21 00:02:46;;;;;;;19.65;2.85;;;9.20;99.90;;;;;;5125363;27;20039;-79
2023/12/21 00:05:11;;;;;;;16.17;3.45;;;9.30;99.90;;;;;;5108132;27;20458;-79
2023/12/21 00:07:37;;;;;;;14.23;2.95;;;9.20;99.90;;;;;;5127321;27;20420;-79
2023/12/21 00:10:03;;;;;;;19.33;3.53;;;9.30;99.90;;;;;;5108549;27;20043;-80
2023/12/21 00:12:28;;;;;;;19.20;3.03;;;9.20;99.90;;;;;;5107995;27;20467;-78
2023/12/21 00:14:54;;;;;;;16.48;3.20;;;9.20;99.90;;;;;;5123675;27;20031;-79
2023/12/21 00:17:20;;;;;;;12.68;2.70;;;9.30;99.90;;;;;;5112078;27;20032;-78
2023/12/21 00:19:45;;;;;;;17.55;3.78;;;9.30;99.90;;;;;;5102036;28;20039;-79
2023/12/21 00:22:11;;;;;;;14.68;3.22;;;9.20;99.90;;;;;;5115773;27;20075;-79
2023/12/21 00:24:36;;;;;;;14.73;3.10;;;9.20;99.90;;;;;;5129335;27;20101;-79
2023/12/21 00:27:02;;;;;;;17.13;3.78;;;9.20;99.90;;;;;;5117524;27;20058;-79
2023/12/21 00:29:28;;;;;;;9.07;2.08;;;9.20;99.90;;;;;;5128217;27;20498;-79
2023/12/21 00:31:53;;;;;;;12.07;2.50;;;9.40;99.90;;;;;;5098623;28;20071;-79
2023/12/21 00:34:19;;;;;;;17.63;2.95;;;9.30;99.90;;;;;;5133254;27;20146;-79
2023/12/21 00:36:47;;;;;;;12.23;2.00;;;9.30;99.90;;;;;;5132427;27;20035;-79
2023/12/21 00:39:12;;;;;;;14.90;2.65;;;9.30;99.90;;;;;;5134752;27;20544;-79
2023/12/21 00:41:38;;;;;;;16.48;2.85;;;9.30;99.90;;;;;;5132935;27;20040;-79
2023/12/21 00:44:03;;;;;;;12.32;3.20;;;9.30;99.90;;;;;;5132709;27;20048;-80
2023/12/21 00:46:29;;;;;;;13.60;2.85;;;9.30;99.90;;;;;;5132297;27;20387;-79
2023/12/21 00:48:55;;;;;;;13.55;2.70;;;9.30;99.90;;;;;;5130693;27;20036;-79
2023/12/21 00:51:20;;;;;;;15.13;4.00;;;9.30;99.90;;;;;;5132037;27;20039;-78
2023/12/21 00:53:46;;;;;;;10.75;2.50;;;9.30;99.90;;;;;;5098522;28;20040;-78
2023/12/21 00:56:12;;;;;;;19.35;3.30;;;9.20;99.90;;;;;;5098715;28;20042;-79
2023/12/21 00:58:37;;;;;;;17.52;3.20;;;9.20;99.90;;;;;;5113640;27;20553;-79
2023/12/21 01:01:03;;;;;;;17.27;3.15;;;9.30;99.90;;;;;;5098562;28;20396;-78
2023/12/21 01:03:29;;;;;;;14.80;3.40;;;9.30;99.90;;;;;;5098428;28;20040;-78
2023/12/21 01:05:55;;;;;;;17.02;2.97;;;9.30;99.90;;;;;;5115344;28;20403;-78
2023/12/21 01:08:20;;;;;;;13.68;2.75;;;9.30;99.90;;;;;;5097458;28;20035;-78
2023/12/21 01:10:46;;;;;;;13.43;2.65;;;9.40;99.90;;;;;;5115532;28;20039;-79
2023/12/21 01:13:11;;;;;;;16.38;2.92;;;9.30;99.90;;;;;;5115130;28;20043;-78
2023/12/21 01:15:37;;;;;;;14.95;3.35;;;9.30;99.90;;;;;;5115087;28;20039;-79
2023/12/21 01:18:03;;;;;;;16.23;3.13;;;9.30;99.90;;;;;;5114281;27;20403;-79
2023/12/21 01:20:28;;;;;;;15.52;3.13;;;9.30;99.90;;;;;;5146619;27;20091;-78
2023/12/21 01:22:54;;;;;;;10.88;2.85;;;9.30;99.90;;;;;;5106219;28;20088;-79
2023/12/21 01:25:20;;;;;;;13.80;2.90;;;9.20;99.90;;;;;;5097852;28;20044;-78
2023/12/21 01:27:45;;;;;;;19.80;3.10;;;9.20;99.90;;;;;;5114581;27;20038;-78
2023/12/21 01:30:11;;;;;;;15.07;3.00;;;9.30;99.90;;;;;;5131292;27;20031;-78
2023/12/21 01:32:37;;;;;;;16.83;3.25;;;9.30;99.90;;;;;;5096247;28;20028;-78
2023/12/21 01:35:02;;;;;;;14.30;2.95;;;9.20;99.90;;;;;;5114103;27;20035;-78
2023/12/21 01:37:28;;;;;;;10.85;3.33;;;9.20;99.90;;;;;;5148467;27;20028;-79
2023/12/21 01:39:54;;;;;;;13.95;2.88;;;9.30;99.90;;;;;;5132075;27;20054;-79
2023/12/21 01:42:20;;;;;;;14.13;2.78;;;9.30;99.90;;;;;;5131941;27;20104;-78
2023/12/21 01:44:45;;;;;;;16.33;2.95;;;9.30;99.90;;;;;;5147766;27;20043;-78
2023/12/21 01:47:11;;;;;;;18.10;3.15;;;9.30;99.90;;;;;;5113802;27;20036;-78
2023/12/21 01:49:39;;;;;;;19.75;3.20;;;9.30;99.90;;;;;;5148985;27;20118;-78
2023/12/21 01:52:05;;;;;;;13.70;3.00;;;9.30;99.90;;;;;;5131923;27;20039;-78
2023/12/21 01:54:31;;;;;;;15.15;3.38;;;9.30;99.90;;;;;;5113463;27;20071;-78
2023/12/21 01:56:57;;;;;;;18.95;4.40;;;9.30;99.90;;;;;;5095835;28;20032;-79
2023/12/21 01:59:23;;;;;;;14.15;3.30;;;9.30;99.90;;;;;;5148617;27;20051;-79
2023/12/21 02:01:49;;;;;;;8.82;2.35;;;9.30;99.90;;;;;;5149000;27;20066;-78
2023/12/21 02:04:15;;;;;;;11.30;2.67;;;9.40;99.90;;;;;;5095985;28;20487;-79
2023/12/21 02:06:40;;;;;;;13.20;3.50;;;9.40;99.90;;;;;;5096000;27;20123;-79
2023/12/21 02:09:06;;;;;;;11.80;2.60;;;9.40;99.90;;;;;;5148544;27;20507;-79
2023/12/21 02:11:32;;;;;;;15.90;3.00;;;9.40;99.90;;;;;;5130253;27;20529;-79
2023/12/21 02:13:58;;;;;;;13.13;2.97;;;9.30;99.90;;;;;;5096177;27;20048;-79
2023/12/21 02:16:32;;;;;;;16.27;3.55;;;9.30;99.90;;;;;;5096123;27;20130;-78
2023/12/21 02:18:58;;;;;;;14.40;3.33;;;9.30;99.90;;;;;;5097314;28;20040;-78
2023/12/21 02:21:24;;;;;;;14.35;3.17;;;9.30;99.90;;;;;;5085391;28;20040;-79
2023/12/21 02:23:53;;;;;;;20.65;3.83;;;9.30;99.90;;;;;;5110328;28;20090;-79
2023/12/21 02:26:18;;;;;;;16.77;3.75;;;9.30;99.90;;;;;;5111255;28;20502;-78
2023/12/21 02:28:44;;;;;;;13.80;3.05;;;9.40;99.90;;;;;;5130952;27;20040;-78
2023/12/21 02:31:10;;;;;;;16.42;3.67;;;9.30;99.90;;;;;;5130863;27;20447;-78
2023/12/21 02:33:35;;;;;;;10.75;3.08;;;9.40;99.90;;;;;;5112620;27;20445;-78
2023/12/21 02:36:03;;;;;;;17.20;3.97;;;9.40;99.90;;;;;;5095464;28;20123;-78
2023/12/21 02:38:28;;;;;;;8.50;2.28;;;9.30;99.90;;;;;;5095375;28;20051;-78
2023/12/21 02:40:54;;;;;;;12.98;3.35;;;9.40;99.90;;;;;;5096736;28;20043;-78
2023/12/21 02:43:19;;;;;;;18.65;3.28;;;9.40;99.90;;;;;;5095559;28;20039;-78
2023/12/21 02:45:45;;;;;;;19.75;3.78;;;9.40;99.90;;;;;;5129405;27;20043;-78
2023/12/21 02:48:11;;;;;;;10.48;2.78;;;9.40;99.90;;;;;;5095648;28;20044;-78
2023/12/21 02:50:36;;;;;;;13.65;3.13;;;9.40;99.90;;;;;;5113266;28;20038;-79
2023/12/21 02:53:02;;;;;;;8.23;2.00;;;9.40;99.90;;;;;;5130323;27;20040;-77
2023/12/21 02:55:27;;;;;;;15.20;3.28;;;9.40;99.90;;;;;;5146847;27;20042;-78
2023/12/21 02:57:53;;;;;;;13.05;2.50;;;9.50;99.90;;;;;;5095355;28;20032;-78
2023/12/21 03:00:19;;;;;;;16.80;3.38;;;9.40;99.90;;;;;;5147521;27;20570;-78
2023/12/21 03:02:44;;;;;;;14.35;3.28;;;9.40;99.90;;;;;;5095953;28;20042;-78
2023/12/21 03:05:10;;;;;;;11.95;2.65;;;9.40;99.90;;;;;;5130076;27;20114;-78
2023/12/21 03:07:36;;;;;;;13.95;3.10;;;9.40;99.90;;;;;;5094769;28;20048;-78
2023/12/21 03:10:02;;;;;;;12.63;2.35;;;9.40;99.90;;;;;;5130351;27;20047;-78
2023/12/21 03:12:28;;;;;;;9.95;2.38;;;9.40;99.90;;;;;;5096076;28;20032;-78
2023/12/21 03:14:53;;;;;;;6.28;1.98;;;9.40;99.90;;;;;;5094881;27;20464;-78
2023/12/21 03:17:19;;;;;;;12.80;2.92;;;9.50;99.90;;;;;;5144085;27;20028;-78
2023/12/21 03:19:45;;;;;;;7.75;1.77;;;9.50;99.90;;;;;;5095337;28;20085;-78
2023/12/21 03:22:11;;;;;;;7.53;1.90;;;9.50;99.90;;;;;;5129983;27;20035;-78
2023/12/21 03:24:36;;;;;;;9.13;2.10;;;9.50;99.90;;;;;;5095050;28;20040;-78
2023/12/21 03:27:03;;;;;;;11.18;2.38;;;9.40;99.90;;;;;;5093940;28;20100;-78
2023/12/21 03:29:28;;;;;;;10.13;2.65;;;9.50;99.90;;;;;;5112707;28;20040;-78
2023/12/21 03:31:56;;;;;;;10.38;2.50;;;9.50;99.90;;;;;;5094957;28;20050;-78
2023/12/21 03:34:22;;;;;;;9.70;2.50;;;9.50;99.90;;;;;;5130034;27;20122;-77
2023/12/21 03:36:48;;;;;;;9.70;2.20;;;9.40;99.90;;;;;;5093685;28;20036;-78
2023/12/21 03:39:13;;;;;;;7.13;1.65;;;9.40;99.90;;;;;;5095655;28;20395;-77
2023/12/21 03:41:39;;;;;;;10.93;2.15;;;9.50;99.90;;;;;;5108017;28;20399;-77
2023/12/21 03:44:05;;;;;;;5.90;1.92;;;9.60;99.90;;;;;;5095035;28;20035;-77
2023/12/21 03:46:30;;;;;;;11.85;2.25;;;9.50;99.90;;;;;;5129535;27;20039;-77
2023/12/21 03:48:56;;;;;;;6.07;2.00;;;9.40;99.90;;;;;;5112421;28;20035;-78
2023/12/21 03:51:21;;;;;;;9.48;2.05;;;9.40;99.90;;;;;;5143957;27;20031;-78
2023/12/21 03:53:47;;;;;;;8.13;2.28;;;9.40;99.90;;;;;;5129419;27;20043;-79
2023/12/21 03:56:13;;;;;;;7.10;1.83;;;9.40;99.90;;;;;;5127816;28;20181;-78
2023/12/21 03:58:38;;;;;;;7.53;1.85;;;9.50;99.90;;;;;;5127479;27;20496;-77
2023/12/21 04:01:04;;;;;;;8.88;2.15;;;9.50;99.90;;;;;;5112312;28;20042;-78
2023/12/21 04:03:30;;;;;;;9.15;2.22;;;9.50;99.90;;;;;;5091539;28;20044;-78
2023/12/21 04:05:56;;;;;;;9.52;2.28;;;9.50;99.90;;;;;;5129287;28;20063;-78
2023/12/21 04:08:22;;;;;;;8.50;2.15;;;9.40;99.90;;;;;;5127760;27;20471;-78
2023/12/21 04:10:48;;;;;;;4.80;1.58;;;9.50;99.90;;;;;;5127216;28;20035;-77
2023/12/21 04:13:14;;;;;;;7.68;1.73;;;9.50;99.90;;;;;;5111235;28;20040;-78
2023/12/21 04:15:40;;;;;;;8.25;2.35;;;9.50;99.90;;;;;;5095194;28;20039;-78
2023/12/21 04:18:05;;;;;;;8.70;2.63;;;9.50;99.90;;;;;;5094361;28;20035;-79
2023/12/21 04:20:31;;;;;;;7.85;2.00;;;9.50;99.90;;;;;;5095390;28;20039;-78
2023/12/21 04:22:56;;;;;;;10.60;1.80;;;9.50;99.90;;;;;;5126892;27;20043;-78
2023/12/21 04:25:22;;;;;;;7.55;2.22;;;9.50;99.90;;;;;;5094167;28;20118;-78
2023/12/21 04:27:48;;;;;;;5.55;1.35;;;9.50;99.90;;;;;;5093997;28;20393;-78
2023/12/21 04:30:14;;;;;;;10.95;3.03;;;9.50;99.90;;;;;;5128862;28;20459;-79
2023/12/21 04:32:41;;;;;;;9.55;2.63;;;9.50;99.90;;;;;;5095063;28;20118;-79
2023/12/21 04:35:09;;;;;;;4.75;1.67;;;9.40;99.90;;;;;;5111089;28;20032;-79
2023/12/21 04:37:34;;;;;;;12.02;2.45;;;9.40;99.90;;;;;;5093383;28;20092;-79
2023/12/21 04:40:00;;;;;;;10.00;2.42;;;9.40;99.90;;;;;;5111898;28;20036;-79
2023/12/21 04:42:25;;;;;;;11.25;2.30;;;9.40;99.90;;;;;;5092316;28;20071;-79
2023/12/21 04:44:51;;;;;;;8.88;2.17;;;9.40;99.90;;;;;;5093454;28;20043;-80
2023/12/21 04:47:17;;;;;;;5.68;1.70;;;9.40;99.90;;;;;;5110588;28;20368;-79
2023/12/21 04:49:42;;;;;;;5.85;2.08;;;9.40;99.90;;;;;;5094027;28;20063;-79
2023/12/21 04:52:08;;;;;;;9.93;2.20;;;9.40;99.90;;;;;;5111838;28;20118;-78
2023/12/21 04:54:33;;;;;;;6.45;2.42;;;9.50;99.90;;;;;;5093082;28;20164;-79
2023/12/21 04:56:59;;;;;;;13.57;3.33;;;9.40;99.90;;;;;;5108353;28;20537;-79
2023/12/21 04:59:27;;;;;;;8.10;2.00;;;9.40;99.90;;;;;;5094713;28;20051;-79
2023/12/21 05:01:56;;;;;;;12.07;2.97;;;9.50;99.90;;;;;;5095798;28;20514;-79
2023/12/21 05:04:22;;;;;;;10.13;2.65;;;9.50;99.90;;;;;;5097716;28;20115;-79
2023/12/21 05:06:47;;;;;;;12.35;2.45;;;9.50;99.90;;;;;;5111942;27;20509;-79
2023/12/21 05:09:13;;;;;;;11.50;2.70;;;9.40;99.90;;;;;;5149695;27;20043;-80
2023/12/21 05:11:39;;;;;;;12.48;2.72;;;9.40;99.90;;;;;;5096449;28;20031;-79
2023/12/21 05:14:04;;;;;;;10.05;2.67;;;9.40;99.90;;;;;;5097662;28;20108;-79
2023/12/21 05:16:30;;;;;;;8.65;1.95;;;9.40;99.90;;;;;;5148661;27;20058;-79
2023/12/21 05:18:55;;;;;;;10.52;2.67;;;9.50;99.90;;;;;;5097466;28;20035;-78
2023/12/21 05:21:21;;;;;;;12.00;2.67;;;9.40;99.90;;;;;;5114073;28;20047;-79
2023/12/21 05:23:47;;;;;;;7.28;1.75;;;9.40;99.90;;;;;;5097213;28;20430;-79
2023/12/21 05:26:13;;;;;;;7.57;2.55;;;9.40;99.90;;;;;;5113216;28;20483;-79
2023/12/21 05:28:41;;;;;;;8.95;2.33;;;9.40;99.90;;;;;;5095970;28;20119;-79
2023/12/21 05:31:08;;;;;;;8.75;2.15;;;9.50;99.90;;;;;;5114901;28;20036;-79
2023/12/21 05:33:33;;;;;;;7.55;2.35;;;9.50;99.90;;;;;;5112667;27;20036;-80
2023/12/21 05:35:59;;;;;;;10.38;2.00;;;9.50;99.90;;;;;;5115031;28;20032;-80
2023/12/21 05:38:24;;;;;;;9.60;2.20;;;9.50;99.90;;;;;;5128685;27;20110;-80
2023/12/21 05:40:50;;;;;;;7.88;2.13;;;9.40;99.90;;;;;;5149167;27;20413;-78
2023/12/21 05:43:16;;;;;;;7.88;2.15;;;9.50;99.90;;;;;;5147744;27;20506;-79
2023/12/21 05:45:42;;;;;;;9.45;2.22;;;9.40;99.90;;;;;;5096988;28;20123;-79
2023/12/21 05:48:07;;;;;;;11.20;1.70;;;9.40;99.90;;;;;;5127661;27;20115;-78
2023/12/21 05:50:33;;;;;;;13.10;2.47;;;9.50;99.90;;;;;;5096162;28;20043;-79
2023/12/21 05:52:59;;;;;;;8.50;2.05;;;9.50;99.90;;;;;;5130283;27;20039;-79
2023/12/21 05:55:24;;;;;;;12.05;2.30;;;9.50;99.90;;;;;;5097758;28;20039;-78
2023/12/21 05:57:50;;;;;;;10.95;2.05;;;9.50;99.90;;;;;;5111326;27;20533;-79
2023/12/21 06:00:16;;;;;;;7.90;2.03;;;9.50;99.90;;;;;;5148060;27;20059;-78
2023/12/21 06:02:42;;;;;;;9.98;2.17;;;9.50;99.90;;;;;;5112686;27;20181;-80
2023/12/21 06:05:08;;;;;;;8.95;2.28;;;9.50;99.90;;;;;;5113373;28;20123;-79
2023/12/21 06:07:34;;;;;;;9.65;2.03;;;9.50;99.90;;;;;;5096489;28;20035;-79
2023/12/21 06:09:59;;;;;;;12.27;2.20;;;9.50;99.90;;;;;;5128744;27;20407;-79
2023/12/21 06:12:25;;;;;;;7.43;1.73;;;9.50;99.90;;;;;;5094203;28;20476;-78
2023/12/21 06:14:51;;;;;;;5.05;1.45;;;9.60;99.90;;;;;;5113400;27;20044;-79
2023/12/21 06:17:17;;;;;;;11.52;2.00;;;9.60;99.90;;;;;;5113894;27;20039;-78
2023/12/21 06:19:43;;;;;;;9.82;2.05;;;9.60;99.90;;;;;;5126735;27;20140;-78
2023/12/21 06:22:09;;;;;;;9.02;2.15;;;9.50;99.90;;;;;;5113890;28;20039;-79
2023/12/21 06:24:35;;;;;;;9.80;2.38;;;9.50;99.90;;;;;;5112761;28;20128;-78
2023/12/21 06:27:00;;;;;;;10.90;2.35;;;9.60;99.90;;;;;;5097600;28;20043;-78
2023/12/21 06:29:26;;;;;;;10.80;2.80;;;9.60;99.90;;;;;;5130101;27;20038;-78
2023/12/21 06:31:51;;;;;;;10.50;2.25;;;9.50;99.90;;;;;;5095000;28;20498;-78
2023/12/21 06:34:17;;;;;;;8.77;2.10;;;9.60;99.90;;;;;;5129852;27;20047;-78
2023/12/21 06:36:43;;;;;;;13.25;2.20;;;9.60;99.90;;;;;;5130728;27;20084;-78
2023/12/21 06:39:09;;;;;;;13.15;3.22;;;9.60;99.90;;;;;;5129683;27;20039;-77
2023/12/21 06:41:35;;;;;;;8.38;2.15;;;9.70;99.90;;;;;;5094766;27;20130;-77
2023/12/21 06:44:00;;;;;;;6.63;2.13;;;9.60;99.90;;;;;;5095902;28;20040;-78
2023/12/21 06:46:26;;;;;;;8.50;2.10;;;9.70;99.90;;;;;;5110957;28;20038;-78
2023/12/21 06:48:51;;;;;;;10.30;2.33;;;9.60;99.90;;;;;;5112790;28;20031;-77
2023/12/21 06:51:17;;;;;;;11.52;1.95;;;9.60;99.90;;;;;;5126998;27;20472;-79
2023/12/21 06:53:43;;;;;;;6.65;1.80;;;9.60;99.90;;;;;;5128902;27;20122;-78
2023/12/21 06:56:12;;;;;;;6.28;1.67;;;9.60;99.90;;;;;;5096312;28;20082;-78
2023/12/21 06:58:37;;;;;;;10.57;2.13;;;9.60;99.90;;;;;;5095048;28;20047;-77
2023/12/21 07:01:04;;;;;;;6.78;2.00;;;9.60;99.90;;;;;;5096156;28;20047;-76
2023/12/21 07:03:29;;;;;;;8.70;1.90;;;9.60;99.90;;;;;;5128302;27;20039;-78
2023/12/21 07:05:55;;;;;;;6.60;1.42;;;9.70;99.90;;;;;;5130181;27;20123;-78
2023/12/21 07:08:22;;;;;;;5.10;1.45;;;9.60;99.90;;;;;;5129055;27;20084;-78
2023/12/21 07:10:47;;;;;;;6.55;1.60;;;9.60;99.90;;;;;;5095626;28;20043;-79
2023/12/21 07:13:13;;;;;;;11.80;1.70;;;9.70;99.90;;;;;;5144164;27;20032;-79
2023/12/21 07:15:39;;;;;;;8.05;1.88;;;9.60;99.90;;;;;;5112796;28;20123;-79
2023/12/21 07:18:05;;;;;;;7.95;1.58;;;9.60;99.90;;;;;;5094994;28;20068;-77
2023/12/21 07:20:30;;;;;;;5.18;1.30;;;9.60;99.90;;;;;;5095785;28;20048;-80
2023/12/21 07:22:56;;;;;;;6.75;1.83;;;9.50;99.90;;;;;;5093161;28;20119;-77
2023/12/21 07:25:22;;;;;;;10.82;1.70;;;9.50;99.90;;;;;;5113191;27;20036;-77
2023/12/21 07:27:48;;;;;;;6.70;1.52;;;9.50;99.90;;;;;;5108829;28;20089;-77
2023/12/21 07:30:14;;;;;;;6.35;1.20;;;9.50;99.90;;;;;;5095536;28;20380;-80
2023/12/21 07:32:40;;;;;;;5.78;1.33;;;9.60;99.90;;;;;;5094323;28;20070;-79
2023/12/21 07:35:06;;;;;;;3.33;0.93;;;9.60;99.90;;;;;;5096598;27;20074;-78
2023/12/21 07:37:32;;;;;;;5.45;1.42;;;9.60;99.90;;;;;;5128574;27;20040;-79
2023/12/21 07:39:57;;;;;;;5.57;1.20;;;9.50;99.90;;;;;;5123652;27;20039;-80
2023/12/21 07:42:23;;;;;;;6.22;1.30;;;9.60;99.90;;;;;;5083589;28;20097;-80
2023/12/21 07:44:49;;;;;;;4.95;1.30;;;9.50;99.90;;;;;;5095175;27;20035;-81
2023/12/21 07:47:14;;;;;;;4.80;1.38;;;9.60;99.90;;;;;;5124908;27;20035;-80
2023/12/21 07:49:40;;;;;;;5.97;1.20;;;9.60;99.90;;;;;;5126698;27;20395;-79
2023/12/21 07:52:05;;;;;;;5.63;1.10;;;9.50;99.90;;;;;;5097859;28;20046;-78
2023/12/21 07:54:31;;;;;;;3.60;1.00;;;9.50;99.90;;;;;;5102181;28;20035;-78
2023/12/21 07:56:57;;;;;;;5.32;0.90;;;9.60;99.90;;;;;;5093667;28;20487;-79
2023/12/21 07:59:24;;;;;;;5.03;1.05;;;9.60;99.90;;;;;;5085115;28;20453;-80
2023/12/21 08:01:50;;;;;;;4.70;1.10;;;9.70;99.90;;;;;;5111311;27;20039;-79
2023/12/21 08:04:16;;;;;;;4.20;0.95;;;9.70;99.90;;;;;;5119692;28;20519;-79
2023/12/21 08:06:42;;;;;;;5.43;1.10;;;9.70;99.90;;;;;;5126100;27;20078;-82
2023/12/21 08:09:07;;;;;;;2.97;1.02;;;9.60;99.90;;;;;;5121593;27;21500;-79
2023/12/21 08:11:33;;;;;;;2.88;1.23;;;9.60;99.90;;;;;;5115096;27;20044;-81
2023/12/21 08:14:00;;;;;;;2.70;0.77;;;9.60;99.90;;;;;;5116316;27;20039;-81
2023/12/21 08:16:26;;;;;;;5.47;1.45;;;9.60;99.90;;;;;;5098616;27;20742;-79
2023/12/21 08:18:52;;;;;;;2.40;0.85;;;9.60;99.90;;;;;;5107799;27;20064;-81
2023/12/21 08:21:17;;;;;;;4.15;1.27;;;9.60;99.90;;;;;;5063642;28;20145;-80
2023/12/21 08:23:44;;;;;;;2.40;0.90;;;9.70;99.90;;;;;;5099393;27;20040;-78
2023/12/21 08:26:10;;;;;;;2.72;1.20;;;9.70;99.90;;;;;;5100864;27;20028;-81
2023/12/21 08:28:37;;;;;;;5.53;1.10;;;9.70;99.90;;;;;;5061930;28;20042;-82
2023/12/21 08:31:03;;;;;;;3.63;0.90;;;9.60;99.90;;;;;;5074744;28;20092;-78
2023/12/21 08:33:30;;;;;;;2.97;0.90;;;9.60;99.90;;;;;;5118499;27;20039;-80
2023/12/21 08:35:56;;;;;;;1.52;0.65;;;9.60;99.90;;;;;;5126760;27;20491;-80
2023/12/21 08:38:21;;;;;;;1.65;0.77;;;9.60;99.90;;;;;;5114022;27;20066;-81
2023/12/21 08:40:47;;;;;;;4.68;1.20;;;9.60;99.90;;;;;;5131404;27;20043;-81
2023/12/21 08:43:14;;;;;;;6.00;1.05;;;9.60;99.90;;;;;;5131723;27;20027;-81
2023/12/21 08:45:40;;;;;;;8.25;1.60;;;9.60;99.90;;;;;;5099805;27;20065;-77
2023/12/21 08:48:06;;;;;;;5.97;1.40;;;9.70;99.90;;;;;;5132300;27;20161;-80
2023/12/21 08:50:32;;;;;;;11.45;1.83;;;9.70;99.90;;;;;;5096903;28;20040;-79
2023/12/21 08:53:00;;;;;;;10.25;1.67;;;9.70;99.90;;;;;;5098013;28;20043;-80
2023/12/21 08:55:27;;;;;;;9.52;1.75;;;9.70;99.90;;;;;;5099416;27;20039;-81
2023/12/21 08:57:55;;;;;;;9.55;2.15;;;9.80;99.90;;;;;;5132656;27;20513;-80
2023/12/21 09:00:20;;;;;;;12.35;1.70;;;9.80;99.90;;;;;;5113189;28;20055;-80
2023/12/21 09:02:46;;;;;;;9.40;1.58;;;9.80;99.90;;;;;;5115012;28;20415;-78
2023/12/21 09:05:13;;;;;;;12.35;2.05;;;9.80;99.90;;;;;;5115436;28;20061;-79
2023/12/21 09:07:39;;;;;;;9.57;1.70;;;9.80;99.90;;;;;;5099580;28;20040;-78
2023/12/21 09:10:06;;;;;;;6.55;1.60;;;9.80;99.90;;;;;;5130662;27;20503;-78
2023/12/21 09:12:32;;;;;;;12.23;1.95;;;9.80;99.90;;;;;;5104674;28;20495;-77
2023/12/21 09:14:57;;;;;;;5.97;1.35;;;9.80;99.90;;;;;;5149227;27;20126;-77
2023/12/21 09:17:23;;;;;;;10.75;1.90;;;9.80;99.90;;;;;;5133960;27;20487;-77
2023/12/21 09:19:49;;;;;;;11.20;1.75;;;9.80;99.90;;;;;;5114647;28;20039;-76
2023/12/21 09:22:14;;;;;;;11.90;2.35;;;9.90;99.90;;;;;;5130736;27;20067;-77
2023/12/21 09:24:40;;;;;;;10.57;2.30;;;9.90;99.90;;;;;;5131635;27;20499;-77
2023/12/21 09:27:06;;;;;;;10.73;1.90;;;9.90;99.90;;;;;;5132947;27;20066;-76
2023/12/21 09:29:32;;;;;;;10.15;1.45;;;9.90;99.90;;;;;;5115113;28;20471;-77
2023/12/21 09:31:59;;;;;;;11.27;1.83;;;9.90;99.90;;;;;;5112632;28;20024;-77
2023/12/21 09:34:25;;;;;;;8.50;1.52;;;9.90;99.90;;;;;;5114757;28;20040;-76
2023/12/21 09:36:53;;;;;;;12.52;2.45;;;9.90;99.90;;;;;;5150161;27;20475;-77
2023/12/21 09:39:19;;;;;;;9.80;1.83;;;9.90;99.90;;;;;;5114410;28;20069;-77
2023/12/21 09:41:45;;;;;;;7.85;1.60;;;10.00;99.90;;;;;;5130773;27;20042;-76
2023/12/21 09:44:16;;;;;;;12.05;1.73;;;10.00;99.90;;;;;;5097310;28;20044;-77
2023/12/21 09:46:46;;;;;;;9.80;1.65;;;10.10;99.90;;;;;;5115108;27;20114;-78
2023/12/21 09:49:16;;;;;;;9.82;1.70;;;10.10;99.90;;;;;;5118448;27;20491;-78
2023/12/21 09:51:44;;;;;;;9.75;2.30;;;10.10;99.90;;;;;;5131959;27;20373;-78
2023/12/21 09:54:11;;;;;;;14.52;2.03;;;10.10;99.90;;;;;;5118746;27;20507;-78
2023/12/21 09:56:36;;;;;;;14.07;2.38;;;10.10;99.90;;;;;;5134350;27;20107;-79
2023/12/21 09:59:04;;;;;;;14.68;2.35;;;10.10;99.90;;;;;;5136540;27;20055;-80
2023/12/21 10:01:29;;;;;;;13.15;2.17;;;10.20;99.90;;;;;;5134125;27;20509;-79
2023/12/21 10:03:57;;;;;;;15.88;2.53;;;10.20;99.90;;;;;;5117644;27;20043;-80
2023/12/21 10:06:24;;;;;;;7.80;1.77;;;10.20;99.90;;;;;;5105285;28;20112;-79
2023/12/21 10:08:50;;;;;;;16.02;4.97;;;10.30;99.90;;;;;;5130822;27;20472;-79
2023/12/21 10:11:15;;;;;;;8.38;1.83;;;10.30;99.90;;;;;;5124788;27;20036;-80
2023/12/21 10:13:46;;;;;;;12.40;1.80;;;10.40;99.90;;;;;;5087947;28;20035;-79
2023/12/21 10:16:12;;;;;;;10.98;1.95;;;10.30;99.90;;;;;;5147111;27;20040;-80
2023/12/21 10:18:38;;;;;;;12.68;2.08;;;10.30;99.90;;;;;;5090795;28;20051;-79
2023/12/21 10:21:03;;;;;;;14.15;1.98;;;10.30;99.90;;;;;;5083541;28;20046;-79
2023/12/21 10:23:30;;;;;;;13.50;2.08;;;10.30;99.90;;;;;;5108227;28;20065;-79
2023/12/21 10:25:58;;;;;;;12.25;2.90;;;10.40;99.90;;;;;;5124578;27;20399;-81
2023/12/21 10:28:24;;;;;;;12.52;1.85;;;10.40;99.90;;;;;;5089177;28;20032;-81
2023/12/21 10:30:58;;;;;;;8.00;1.33;;;10.40;99.90;;;;;;5111186;27;20119;-81
2023/12/21 10:33:27;;;;;;;11.38;3.63;;;10.40;99.90;;;;;;5144615;27;20043;-80
2023/12/21 10:35:53;;;;;;;9.65;1.95;;;10.50;99.90;;;;;;5094248;28;20043;-79
2023/12/21 10:38:20;;;;;;;17.17;2.38;;;10.50;99.90;;;;;;5127837;27;20446;-80
2023/12/21 10:40:46;;;;;;;11.48;2.05;;;10.50;99.90;;;;;;5129009;27;20039;-77
2023/12/21 10:43:15;;;;;;;17.77;2.63;;;10.50;99.90;;;;;;5144376;27;20175;-78
2023/12/21 10:45:48;;;;;;;12.48;2.10;;;10.60;99.90;;;;;;5108161;27;20051;-78
2023/12/21 10:48:16;;;;;;;11.85;2.15;;;10.60;99.90;;;;;;5093658;28;20391;-79
2023/12/21 10:50:51;;;;;;;11.77;1.85;;;10.60;99.90;;;;;;5112084;27;20037;-78
2023/12/21 10:53:18;;;;;;;14.95;2.38;;;10.70;99.90;;;;;;5145705;27;20035;-80
2023/12/21 10:55:48;;;;;;;18.88;2.28;;;10.70;99.90;;;;;;5092969;28;20114;-79
2023/12/21 10:58:15;;;;;;;11.35;1.92;;;10.70;99.90;;;;;;5127650;27;20044;-80
2023/12/21 11:00:43;;;;;;;12.95;2.08;;;10.70;99.90;;;;;;5111720;28;20051;-80
2023/12/21 11:03:12;;;;;;;8.68;1.92;;;10.80;99.90;;;;;;5123687;27;20035;-81
2023/12/21 11:05:41;;;;;;;10.18;1.88;;;10.80;99.90;;;;;;5144098;27;20035;-78
2023/12/21 11:08:07;;;;;;;11.50;2.65;;;10.70;99.90;;;;;;5085047;28;20035;-78
2023/12/21 11:10:34;;;;;;;10.68;1.92;;;10.70;99.90;;;;;;5135163;27;20088;-78
2023/12/21 11:13:00;;;;;;;9.07;1.63;;;10.80;99.90;;;;;;5093598;28;20376;-79
2023/12/21 11:15:25;;;;;;;9.48;1.98;;;10.80;99.90;;;;;;5128127;27;20097;-80
2023/12/21 11:18:24;;;;;;;11.30;2.20;;;10.80;99.90;;;;;;5112390;28;20462;-78
2023/12/21 11:20:59;;;;;;;14.02;2.58;;;10.90;99.90;;;;;;5058538;28;20050;-78
2023/12/21 11:23:26;;;;;;;8.88;1.85;;;10.80;99.90;;;;;;5125438;27;20112;-81
2023/12/21 11:25:59;;;;;;;10.82;2.00;;;10.90;99.90;;;;;;5094983;28;20047;-80
2023/12/21 11:28:32;;;;;;;10.18;1.48;;;10.80;99.90;;;;;;5128590;27;20535;-79
2023/12/21 11:30:58;;;;;;;18.98;2.97;;;10.80;99.90;;;;;;5127258;27;20536;-80
2023/12/21 11:33:28;;;;;;;9.07;1.75;;;10.80;99.90;;;;;;5122481;27;20036;-80
2023/12/21 11:35:54;;;;;;;11.38;2.63;;;10.80;99.90;;;;;;5141237;27;20092;-79
2023/12/21 11:38:24;;;;;;;17.73;2.72;;;10.80;99.90;;;;;;5093785;28;20047;-79
2023/12/21 11:40:49;;;;;;;18.58;2.83;;;10.80;99.90;;;;;;5086360;28;20081;-79
2023/12/21 11:43:20;;;;;;;16.50;2.95;;;10.80;99.90;;;;;;5094339;28;20040;-79
2023/12/21 11:45:50;;;;;;;16.70;2.65;;;10.80;99.90;;;;;;5129691;27;20041;-81
2023/12/21 11:48:19;;;;;;;14.40;2.70;;;10.80;99.90;;;;;;5126684;27;20035;-82
2023/12/21 11:50:45;;;;;;;13.52;2.25;;;10.80;99.90;;;;;;5111002;28;20039;-79
2023/12/21 11:53:12;;;;;;;14.40;2.90;;;10.80;99.90;;;;;;5128383;27;20115;-79
2023/12/21 11:55:42;;;;;;;16.02;2.50;;;10.80;99.90;;;;;;5092590;28;20047;-79
2023/12/21 11:58:19;;;;;;;15.63;3.30;;;11.00;99.90;;;;;;5093202;28;20040;-74
2023/12/21 12:00:55;;;;;;;15.35;2.78;;;10.90;99.90;;;;;;5110373;28;20046;-79
2023/12/21 12:03:23;;;;;;;21.10;2.92;;;10.90;99.90;;;;;;5099958;28;20548;-79
2023/12/21 12:05:53;;;;;;;13.95;2.35;;;10.90;99.90;;;;;;5128778;28;20089;-77
2023/12/21 12:08:24;;;;;;;16.60;2.88;;;10.90;99.90;;;;;;5127294;27;20039;-77
2023/12/21 12:10:51;;;;;;;15.05;2.90;;;10.90;99.90;;;;;;5148435;27;20494;-78
2023/12/21 12:13:21;;;;;;;17.48;2.90;;;10.90;99.90;;;;;;5097187;27;20040;-76
2023/12/21 12:15:48;;;;;;;14.00;3.13;;;10.90;99.90;;;;;;5081718;28;20392;-78
2023/12/21 12:18:18;;;;;;;13.95;2.75;;;10.90;99.90;;;;;;5143048;27;20081;-78
2023/12/21 12:20:45;;;;;;;13.07;2.65;;;10.90;99.90;;;;;;5150227;27;20141;-79
2023/12/21 12:23:12;;;;;;;17.13;2.83;;;10.90;99.90;;;;;;5114219;28;20047;-77
2023/12/21 12:25:38;;;;;;;13.30;2.33;;;10.90;99.90;;;;;;5098665;28;20122;-78
2023/12/21 12:28:04;;;;;;;13.55;2.40;;;10.90;99.90;;;;;;5115484;27;20456;-77
2023/12/21 12:30:31;;;;;;;11.43;2.90;;;10.90;99.90;;;;;;5097526;28;20047;-77
2023/12/21 12:33:02;;;;;;;15.30;2.45;;;11.00;99.90;;;;;;5114748;28;20027;-76
2023/12/21 12:35:28;;;;;;;15.02;2.67;;;11.00;99.90;;;;;;5116033;28;20118;-76
2023/12/21 12:37:54;;;;;;;11.68;2.55;;;11.10;99.90;;;;;;5096874;28;20062;-76
2023/12/21 12:40:22;;;;;;;14.95;3.40;;;11.10;99.90;;;;;;5133380;27;20027;-76
2023/12/21 12:42:49;;;;;;;16.80;2.35;;;11.10;99.90;;;;;;5097345;28;20545;-76